createdAt,value
2023-08-01T00:00:32.523Z,1.73
2023-08-01T00:03:34.512Z,1.85
2023-08-01T00:06:41.242Z,1.88
2023-08-01T00:09:46.507Z,2.00
2023-08-01T00:12:48.348Z,1.88
2023-08-01T00:16:06.269Z,1.93
2023-08-01T00:19:12.951Z,1.92
2023-08-01T00:22:18.465Z,1.80
2023-08-01T00:25:20.732Z,1.90
2023-08-01T00:28:25.772Z,1.90
2023-08-01T00:31:27.615Z,2.30
2023-08-01T00:34:29.558Z,2.03
2023-08-01T00:37:36.095Z,2.20
2023-08-01T00:40:40.815Z,2.60
2023-08-01T00:43:42.661Z,2.85
2023-08-01T00:46:44.576Z,2.80
2023-08-01T00:49:50.937Z,2.45
2023-08-01T00:52:53.345Z,2.72
2023-08-01T00:55:55.216Z,3.08
2023-08-01T00:58:57.074Z,3.22
2023-08-01T01:01:59.845Z,3.23
2023-08-01T01:05:05.940Z,4.03
2023-08-01T01:08:11.442Z,4.40
2023-08-01T01:11:13.258Z,3.65
2023-08-01T01:14:15.255Z,3.92
2023-08-01T01:17:17.232Z,3.43
2023-08-01T01:20:25.249Z,4.13
2023-08-01T01:23:30.104Z,4.72
2023-08-01T01:26:37.534Z,5.35
2023-08-01T01:29:39.550Z,4.82
2023-08-01T01:32:41.511Z,5.27
2023-08-01T01:35:46.607Z,5.50
2023-08-01T01:38:48.471Z,5.45
2023-08-01T01:41:54.141Z,4.97
2023-08-01T01:44:56.063Z,5.75
2023-08-01T01:47:57.940Z,5.60
2023-08-01T01:51:04.279Z,4.40
2023-08-01T01:54:06.095Z,3.92
2023-08-01T01:57:07.933Z,3.92
2023-08-01T02:00:13.126Z,3.42
2023-08-01T02:03:15.004Z,3.77
2023-08-01T02:06:16.877Z,3.63
2023-08-01T02:09:18.780Z,3.50
2023-08-01T02:12:21.850Z,3.25
2023-08-01T02:15:23.711Z,3.70
2023-08-01T02:18:25.550Z,3.40
2023-08-01T02:21:27.335Z,4.20
2023-08-01T02:24:32.702Z,4.60
2023-08-01T02:27:34.603Z,4.43
2023-08-01T02:30:37.003Z,4.57
2023-08-01T02:33:39.091Z,4.00
2023-08-01T02:36:44.710Z,6.03
2023-08-01T02:39:46.578Z,4.20
2023-08-01T02:42:48.450Z,4.60
2023-08-01T02:45:50.623Z,4.50
2023-08-01T02:48:53.403Z,4.80
2023-08-01T02:51:58.718Z,4.82
2023-08-01T02:55:00.655Z,5.70
2023-08-01T02:58:02.478Z,6.72
2023-08-01T03:01:10.989Z,7.28
2023-08-01T03:04:13.116Z,6.13
2023-08-01T03:07:14.966Z,6.15
2023-08-01T03:10:35.644Z,6.20
2023-08-01T03:13:39.093Z,5.22
2023-08-01T03:16:41.286Z,5.90
2023-08-01T03:19:43.376Z,6.03
2023-08-01T03:22:49.398Z,6.80
2023-08-01T03:25:51.259Z,8.07
2023-08-01T03:28:53.072Z,7.38
2023-08-01T03:31:54.933Z,8.50
2023-08-01T03:34:56.772Z,8.67
2023-08-01T03:38:01.632Z,8.35
2023-08-01T03:41:05.334Z,9.10
2023-08-01T03:44:07.185Z,6.90
2023-08-01T03:47:09.120Z,7.72
2023-08-01T03:50:11.260Z,6.80
2023-08-01T03:53:13.128Z,6.57
2023-08-01T03:56:22.129Z,6.50
2023-08-01T03:59:24.256Z,9.45
2023-08-01T04:02:26.152Z,10.50
2023-08-01T04:05:29.293Z,8.37
2023-08-01T04:08:31.380Z,8.27
2023-08-01T04:11:33.587Z,7.53
2023-08-01T04:14:35.939Z,5.18
2023-08-01T04:17:37.827Z,5.20
2023-08-01T04:20:39.689Z,4.87
2023-08-01T04:23:42.007Z,4.60
2023-08-01T04:26:44.012Z,4.20
2023-08-01T04:29:46.229Z,5.15
2023-08-01T04:32:48.060Z,6.75
2023-08-01T04:35:50.466Z,7.30
2023-08-01T04:38:56.122Z,6.97
2023-08-01T04:41:57.979Z,6.43
2023-08-01T04:44:59.787Z,5.82
2023-08-01T04:48:01.792Z,7.93
2023-08-01T04:51:04.427Z,8.50
2023-08-01T04:54:06.266Z,20.17
2023-08-01T04:57:08.157Z,16.90
2023-08-01T05:00:11.205Z,16.13
2023-08-01T05:03:13.122Z,14.80
2023-08-01T05:06:15.656Z,13.97
2023-08-01T05:09:20.638Z,15.05
2023-08-01T05:12:22.507Z,16.90
2023-08-01T05:15:24.549Z,17.92
2023-08-01T05:18:26.569Z,15.43
2023-08-01T05:21:28.539Z,7.53
2023-08-01T05:24:33.830Z,6.53
2023-08-01T05:27:35.691Z,4.57
2023-08-01T05:30:37.515Z,3.55
2023-08-01T05:33:39.458Z,5.65
2023-08-01T05:36:41.567Z,5.90
2023-08-01T05:39:43.568Z,6.95
2023-08-01T05:42:48.875Z,5.70
2023-08-01T05:45:53.453Z,8.50
2023-08-01T05:48:55.706Z,9.63
2023-08-01T05:51:57.900Z,5.87
2023-08-01T05:54:59.760Z,4.72
2023-08-01T05:58:01.651Z,4.30
2023-08-01T06:01:03.830Z,2.88
2023-08-01T06:04:05.844Z,2.40
2023-08-01T06:07:07.877Z,3.17
2023-08-01T06:10:14.183Z,4.55
2023-08-01T06:13:16.518Z,4.68
2023-08-01T06:16:18.389Z,3.85
2023-08-01T06:19:20.412Z,3.53
2023-08-01T06:22:22.266Z,5.00
2023-08-01T06:25:27.877Z,2.88
2023-08-01T06:28:29.721Z,3.45
2023-08-01T06:31:31.680Z,3.42
2023-08-01T06:34:33.538Z,3.85
2023-08-01T06:37:35.363Z,3.90
2023-08-01T06:40:41.483Z,4.53
2023-08-01T06:43:43.706Z,3.65
2023-08-01T06:46:45.714Z,3.50
2023-08-01T06:49:47.649Z,2.85
2023-08-01T06:52:49.481Z,2.33
2023-08-01T06:55:55.511Z,2.40
2023-08-01T06:58:57.487Z,2.53
2023-08-01T07:01:59.477Z,3.03
2023-08-01T07:05:01.430Z,2.60
2023-08-01T07:08:03.584Z,3.40
2023-08-01T07:11:05.711Z,3.15
2023-08-01T07:14:11.503Z,2.60
2023-08-01T07:17:13.497Z,2.10
2023-08-01T07:20:15.469Z,2.03
2023-08-01T07:23:17.553Z,2.27
2023-08-01T07:26:19.394Z,2.40
2023-08-01T07:29:21.276Z,2.55
2023-08-01T07:32:23.131Z,1.90
2023-08-01T07:35:24.987Z,2.05
2023-08-01T07:38:28.304Z,2.17
2023-08-01T07:41:34.073Z,2.20
2023-08-01T07:44:35.961Z,2.47
2023-08-01T07:47:37.877Z,2.80
2023-08-01T07:50:39.794Z,2.40
2023-08-01T07:53:41.686Z,2.53
2023-08-01T07:56:48.162Z,2.13
2023-08-01T07:59:50.043Z,2.65
2023-08-01T08:02:51.901Z,2.20
2023-08-01T08:05:53.786Z,2.60
2023-08-01T08:08:55.607Z,2.23
2023-08-01T08:11:58.782Z,2.13
2023-08-01T08:15:00.675Z,2.40
2023-08-01T08:18:05.588Z,2.35
2023-08-01T08:21:07.577Z,2.13
2023-08-01T08:24:09.513Z,2.13
2023-08-01T08:27:11.396Z,2.40
2023-08-01T08:30:13.276Z,2.78
2023-08-01T08:33:21.333Z,2.55
2023-08-01T08:36:23.111Z,2.22
2023-08-01T08:39:25.033Z,2.20
2023-08-01T08:42:26.901Z,2.08
2023-08-01T08:45:28.788Z,2.40
2023-08-01T08:48:30.926Z,2.78
2023-08-01T08:51:32.893Z,3.55
2023-08-01T08:54:34.833Z,3.17
2023-08-01T08:57:39.906Z,2.70
2023-08-01T09:00:41.837Z,3.10
2023-08-01T09:03:45.299Z,3.20
2023-08-01T09:06:51.891Z,2.70
2023-08-01T09:09:54.526Z,3.43
2023-08-01T09:12:56.378Z,2.55
2023-08-01T09:15:58.369Z,4.00
2023-08-01T09:19:00.407Z,3.67
2023-08-01T09:22:03.085Z,4.00
2023-08-01T09:25:05.168Z,2.70
2023-08-01T09:28:19.621Z,2.10
2023-08-01T09:31:31.885Z,1.95
2023-08-01T09:34:34.014Z,2.42
2023-08-01T09:37:42.897Z,2.40
2023-08-01T09:40:45.688Z,2.10
2023-08-01T09:43:48.167Z,2.00
2023-08-01T09:47:22.558Z,2.63
2023-08-01T09:50:25.091Z,1.80
2023-08-01T09:53:26.867Z,2.20
2023-08-01T09:56:31.866Z,2.00
2023-08-01T09:59:37.441Z,2.10
2023-08-01T10:02:39.525Z,2.88
2023-08-01T10:05:41.418Z,2.97
2023-08-01T10:08:43.757Z,3.13
2023-08-01T10:11:50.456Z,3.10
2023-08-01T10:14:52.405Z,3.42
2023-08-01T10:17:54.308Z,2.80
2023-08-01T10:20:56.184Z,2.50
2023-08-01T10:23:58.040Z,2.88
2023-08-01T10:27:12.805Z,3.40
2023-08-01T10:30:18.121Z,2.95
2023-08-01T10:33:19.980Z,3.92
2023-08-01T10:36:24.017Z,4.68
2023-08-01T10:39:26.784Z,3.80
2023-08-01T10:42:39.274Z,1.90
2023-08-01T10:45:43.942Z,2.42
2023-08-01T10:48:54.742Z,2.10
2023-08-01T10:51:56.539Z,3.28
2023-08-01T10:55:02.726Z,2.83
2023-08-01T10:58:08.669Z,3.07
2023-08-01T11:01:10.439Z,2.75
2023-08-01T11:04:16.759Z,1.73
2023-08-01T11:07:18.578Z,1.67
2023-08-01T11:10:20.340Z,1.95
2023-08-01T11:13:22.319Z,1.90
2023-08-01T11:16:24.290Z,1.50
2023-08-01T11:19:27.897Z,1.67
2023-08-01T11:22:31.686Z,1.30
2023-08-01T11:25:44.394Z,1.40
2023-08-01T11:28:49.494Z,1.47
2023-08-01T11:32:01.290Z,1.67
2023-08-01T11:35:03.572Z,2.50
2023-08-01T11:38:06.119Z,2.17
2023-08-01T11:41:07.905Z,1.50
2023-08-01T11:44:12.306Z,1.40
2023-08-01T11:47:18.030Z,1.95
2023-08-01T11:50:27.986Z,2.35
2023-08-01T11:53:30.459Z,4.07
2023-08-01T11:56:32.516Z,2.28
2023-08-01T11:59:37.333Z,1.80
2023-08-01T12:02:39.089Z,1.98
2023-08-01T12:05:51.162Z,2.17
2023-08-01T12:08:53.675Z,1.90
2023-08-01T12:12:02.261Z,1.50
2023-08-01T12:15:08.662Z,1.57
2023-08-01T12:18:10.403Z,1.50
2023-08-01T12:21:12.123Z,2.67
2023-08-01T12:24:13.967Z,3.75
2023-08-01T12:27:16.529Z,5.10
2023-08-01T12:30:22.586Z,3.40
2023-08-01T12:33:26.334Z,3.70
2023-08-01T12:36:30.076Z,3.38
2023-08-01T12:39:31.973Z,2.30
2023-08-01T12:42:33.840Z,1.90
2023-08-01T12:45:38.432Z,1.90
2023-08-01T12:48:43.083Z,2.03
2023-08-01T12:51:44.828Z,2.30
2023-08-01T12:54:46.632Z,2.13
2023-08-01T12:57:48.512Z,2.22
2023-08-01T13:00:50.411Z,1.67
2023-08-01T13:03:55.346Z,2.72
2023-08-01T13:06:57.132Z,2.20
2023-08-01T13:09:59.279Z,1.63
2023-08-01T13:13:04.466Z,1.30
2023-08-01T13:16:06.351Z,4.17
2023-08-01T13:19:08.668Z,7.00
2023-08-01T13:22:10.468Z,5.05
2023-08-01T13:25:12.271Z,3.70
2023-08-01T13:28:14.131Z,3.25
2023-08-01T13:31:16.014Z,3.87
2023-08-01T13:34:22.570Z,4.07
2023-08-01T13:37:28.084Z,4.07
2023-08-01T13:40:29.929Z,2.88
2023-08-01T13:43:31.770Z,2.38
2023-08-01T13:46:36.623Z,1.30
2023-08-01T13:49:38.576Z,1.30
2023-08-01T13:52:44.873Z,1.33
2023-08-01T13:55:47.376Z,3.03
2023-08-01T13:58:49.172Z,5.00
2023-08-01T14:01:54.344Z,9.57
2023-08-01T14:05:00.701Z,5.00
2023-08-01T14:08:03.410Z,2.33
2023-08-01T14:11:07.100Z,1.30
2023-08-01T14:14:08.983Z,1.55
2023-08-01T14:17:13.693Z,1.67
2023-08-01T14:20:18.567Z,2.75
2023-08-01T14:23:21.291Z,3.92
2023-08-01T14:26:23.223Z,5.05
2023-08-01T14:29:25.133Z,4.45
2023-08-01T14:32:30.476Z,1.73
2023-08-01T14:35:32.905Z,3.20
2023-08-01T14:38:35.305Z,2.35
2023-08-01T14:42:02.540Z,2.13
2023-08-01T14:44:59.093Z,1.50
2023-08-01T14:48:00.942Z,3.30
2023-08-01T14:51:11.628Z,3.58
2023-08-01T14:54:14.070Z,2.00
2023-08-01T14:57:17.607Z,1.58
2023-08-01T15:00:19.517Z,3.17
2023-08-01T15:03:24.649Z,3.70
2023-08-01T15:06:27.923Z,4.22
2023-08-01T15:09:30.089Z,3.85
2023-08-01T15:12:31.964Z,3.65
2023-08-01T15:15:40.050Z,2.53
2023-08-01T15:18:45.972Z,4.00
2023-08-01T15:21:51.465Z,3.28
2023-08-01T15:24:53.289Z,3.55
2023-08-01T15:27:55.386Z,3.28
2023-08-01T15:31:07.651Z,2.42
2023-08-01T15:34:10.255Z,2.00
2023-08-01T15:37:12.207Z,3.67
2023-08-01T15:40:14.200Z,2.42
2023-08-01T15:43:16.085Z,2.58
2023-08-01T15:46:18.032Z,2.75
2023-08-01T15:49:24.084Z,2.37
2023-08-01T15:52:25.877Z,1.95
2023-08-01T15:55:27.763Z,2.25
2023-08-01T15:58:32.666Z,1.80
2023-08-01T16:01:34.540Z,4.90
2023-08-01T16:04:40.743Z,3.30
2023-08-01T16:07:45.387Z,2.30
2023-08-01T16:10:47.229Z,1.90
2023-08-01T16:13:52.780Z,1.80
2023-08-01T16:16:54.823Z,1.42
2023-08-01T16:19:57.013Z,1.57
2023-08-01T16:22:58.905Z,1.85
2023-08-01T16:26:03.595Z,2.10
2023-08-01T16:29:05.410Z,1.98
2023-08-01T16:32:07.663Z,1.42
2023-08-01T16:35:13.374Z,1.90
2023-08-01T16:38:15.469Z,1.58
2023-08-01T16:41:27.122Z,1.85
2023-08-01T16:44:28.982Z,1.77
2023-08-01T16:47:41.464Z,1.52
2023-08-01T16:50:49.066Z,1.40
2023-08-01T16:53:53.665Z,1.50
2023-08-01T16:56:55.641Z,1.70
2023-08-01T16:59:57.473Z,1.40
2023-08-01T17:02:59.410Z,1.63
2023-08-01T17:06:05.640Z,1.57
2023-08-01T17:09:10.117Z,1.35
2023-08-01T17:12:12.234Z,1.23
2023-08-01T17:15:14.125Z,1.52
2023-08-01T17:18:19.340Z,1.20
2023-08-01T17:21:21.382Z,1.30
2023-08-01T17:24:23.353Z,1.40
2023-08-01T17:27:25.228Z,1.33
2023-08-01T17:30:27.087Z,1.02
2023-08-01T17:33:29.009Z,1.00
2023-08-01T17:36:34.847Z,1.00
2023-08-01T17:39:37.384Z,0.90
2023-08-01T17:42:39.405Z,0.90
2023-08-01T17:45:41.443Z,0.90
2023-08-01T17:48:43.488Z,1.15
2023-08-01T17:51:48.841Z,0.90
2023-08-01T17:54:51.126Z,0.93
2023-08-01T17:57:53.028Z,0.75
2023-08-01T18:00:54.997Z,0.70
2023-08-01T18:03:57.844Z,1.13
2023-08-01T18:07:08.131Z,0.65
2023-08-01T18:10:10.195Z,1.10
2023-08-01T18:13:12.005Z,0.90
2023-08-01T18:16:24.226Z,0.90
2023-08-01T18:19:26.118Z,1.20
2023-08-01T18:22:29.496Z,1.10
2023-08-01T18:25:37.811Z,1.00
2023-08-01T18:28:39.600Z,1.00
2023-08-01T18:31:41.461Z,0.93
2023-08-01T18:34:43.314Z,1.27
2023-08-01T18:37:45.185Z,1.17
2023-08-01T18:40:51.122Z,1.07
2023-08-01T18:44:00.146Z,1.40
2023-08-01T18:47:01.944Z,1.20
2023-08-01T18:50:07.659Z,1.33
2023-08-01T18:53:14.019Z,1.10
2023-08-01T18:56:20.267Z,1.10
2023-08-01T18:59:22.333Z,1.17
2023-08-01T19:02:24.345Z,1.30
2023-08-01T19:05:29.751Z,1.35
2023-08-01T19:08:34.467Z,1.30
2023-08-01T19:11:36.526Z,1.20
2023-08-01T19:14:38.420Z,1.30
2023-08-01T19:17:40.570Z,1.10
2023-08-01T19:20:42.411Z,1.20
2023-08-01T19:23:44.503Z,1.10
2023-08-01T19:26:46.331Z,1.30
2023-08-01T19:29:51.821Z,1.20
2023-08-01T19:32:53.705Z,1.20
2023-08-01T19:35:55.714Z,1.00
2023-08-01T19:39:00.751Z,1.08
2023-08-01T19:42:02.599Z,1.47
2023-08-01T19:45:05.666Z,1.43
2023-08-01T19:48:09.741Z,1.27
2023-08-01T19:51:12.260Z,1.35
2023-08-01T19:54:14.133Z,1.40
2023-08-01T19:57:16.010Z,1.27
2023-08-01T20:00:17.947Z,1.30
2023-08-01T20:03:21.476Z,1.30
2023-08-01T20:06:23.535Z,1.52
2023-08-01T20:09:28.855Z,1.25
2023-08-01T20:12:30.775Z,1.53
2023-08-01T20:15:36.309Z,1.77
2023-08-01T20:18:38.234Z,1.23
2023-08-01T20:21:42.796Z,1.80
2023-08-01T20:24:44.618Z,1.40
2023-08-01T20:27:50.213Z,1.60
2023-08-01T20:30:52.308Z,1.50
2023-08-01T20:33:54.174Z,1.30
2023-08-01T20:36:59.590Z,1.45
2023-08-01T20:40:01.617Z,2.20
2023-08-01T20:43:04.017Z,1.80
2023-08-01T20:46:06.007Z,1.43
2023-08-01T20:49:07.886Z,1.70
2023-08-01T20:52:09.773Z,1.60
2023-08-01T20:55:11.725Z,1.75
2023-08-01T20:58:13.677Z,1.60
2023-08-01T21:01:15.583Z,1.60
2023-08-01T21:04:17.471Z,1.80
2023-08-01T21:07:20.538Z,1.80
2023-08-01T21:10:22.578Z,1.60
2023-08-01T21:13:27.941Z,1.67
2023-08-01T21:16:29.835Z,1.70
2023-08-01T21:19:31.880Z,1.40
2023-08-01T21:22:33.709Z,1.50
2023-08-01T21:25:35.603Z,1.30
2023-08-01T21:28:37.706Z,1.33
2023-08-01T21:31:39.575Z,1.47
2023-08-01T21:34:41.398Z,1.15
2023-08-01T21:37:43.220Z,1.60
2023-08-01T21:40:44.991Z,1.38
2023-08-01T21:43:46.952Z,1.43
2023-08-01T21:46:48.844Z,1.50
2023-08-01T21:49:50.709Z,1.20
2023-08-01T21:52:52.705Z,1.30
2023-08-01T21:55:54.672Z,1.42
2023-08-01T21:59:00.144Z,1.60
2023-08-01T22:02:04.836Z,2.30
2023-08-01T22:05:07.301Z,1.75
2023-08-01T22:08:09.429Z,1.88
2023-08-01T22:11:11.311Z,1.50
2023-08-01T22:14:15.986Z,2.00
2023-08-01T22:17:20.668Z,1.93
2023-08-01T22:20:22.753Z,2.30
2023-08-01T22:23:24.790Z,2.00
2023-08-01T22:26:26.692Z,1.98
2023-08-01T22:29:28.627Z,2.03
2023-08-01T22:32:30.469Z,1.60
2023-08-01T22:35:32.339Z,2.20
2023-08-01T22:38:34.118Z,1.90
2023-08-01T22:41:35.957Z,2.20
2023-08-01T22:44:37.891Z,1.57
2023-08-01T22:47:40.772Z,1.97
2023-08-01T22:50:42.675Z,1.88
2023-08-01T22:53:51.817Z,1.83
2023-08-01T22:56:53.774Z,1.85
2023-08-01T22:59:59.192Z,1.90
2023-08-01T23:03:01.264Z,1.87
2023-08-01T23:06:03.310Z,2.00
2023-08-01T23:09:05.951Z,2.30
2023-08-01T23:12:12.200Z,1.95
2023-08-01T23:15:14.132Z,2.23
2023-08-01T23:18:20.438Z,1.93
2023-08-01T23:21:22.346Z,1.90
2023-08-01T23:24:24.258Z,2.05
2023-08-01T23:27:28.904Z,2.15
2023-08-01T23:30:30.833Z,2.33
2023-08-01T23:33:32.764Z,2.20
2023-08-01T23:36:34.641Z,2.17
2023-08-01T23:39:36.672Z,2.05
2023-08-01T23:42:38.759Z,2.25
2023-08-01T23:45:54.397Z,2.23
2023-08-01T23:48:56.479Z,2.53
2023-08-01T23:51:58.351Z,1.70
2023-08-01T23:55:00.433Z,1.55
2023-08-01T23:58:02.270Z,1.90
